Time;durP1;ratioP1;P1;durP2;ratioP2;P2;SDS_P1;SDS_P2;PMS_P1;PMS_P2;Temp;Humidity;BMP_temperature;BMP_pressure;BME280_temperature;BME280_humidity;BME280_pressure;Samples;Min_cycle;Max_cycle;Signal;HPM_P1;HPM_P2
2023/01/28 00:00:49;;;;;;;1.97;0.97;;;2.10;99.90;;;;;;4972974;28;20210;-71
2023/01/28 00:03:16;;;;;;;2.27;1.13;;;2.10;99.90;;;;;;4971291;28;20209;-70
2023/01/28 00:05:42;;;;;;;2.10;0.80;;;2.20;99.90;;;;;;4972090;28;20232;-70
2023/01/28 00:08:12;;;;;;;3.27;1.00;;;2.20;99.90;;;;;;4972432;28;20202;-70
2023/01/28 00:10:39;;;;;;;2.47;1.20;;;2.20;99.90;;;;;;4972700;28;20205;-71
2023/01/28 00:13:06;;;;;;;3.33;0.90;;;2.20;99.90;;;;;;4971673;28;20261;-70
2023/01/28 00:15:33;;;;;;;0.93;0.90;;;2.10;99.90;;;;;;4972678;28;20228;-70
2023/01/28 00:18:00;;;;;;;2.10;1.20;;;2.10;99.90;;;;;;4975977;28;20206;-70
2023/01/28 00:20:26;;;;;;;3.63;2.00;;;2.20;99.90;;;;;;4976430;28;20213;-70
2023/01/28 00:22:53;;;;;;;2.30;0.90;;;2.10;99.90;;;;;;4975094;28;20202;-70
2023/01/28 00:25:21;;;;;;;1.60;0.87;;;2.10;99.90;;;;;;4975833;28;20205;-70
2023/01/28 00:27:50;;;;;;;1.13;0.87;;;2.10;99.90;;;;;;4976194;28;20663;-70
2023/01/28 00:30:18;;;;;;;2.40;1.00;;;2.10;99.90;;;;;;4975205;28;20213;-70
2023/01/28 00:32:45;;;;;;;1.40;1.00;;;2.00;99.90;;;;;;4975513;28;20325;-70
2023/01/28 00:35:11;;;;;;;5.70;1.30;;;2.10;99.90;;;;;;4975836;28;20671;-71
2023/01/28 00:37:38;;;;;;;3.33;1.20;;;2.10;99.90;;;;;;4975336;28;20233;-70
2023/01/28 00:40:08;;;;;;;2.17;1.33;;;2.10;99.90;;;;;;4975979;28;20213;-70
2023/01/28 00:42:37;;;;;;;5.13;1.10;;;2.00;99.90;;;;;;4975381;28;20206;-70
2023/01/28 00:45:04;;;;;;;1.40;1.00;;;1.90;99.90;;;;;;4975445;28;20267;-70
2023/01/28 00:47:31;;;;;;;2.60;0.83;;;1.90;99.90;;;;;;4974811;28;20214;-70
2023/01/28 00:49:57;;;;;;;2.33;1.03;;;1.80;99.90;;;;;;4975089;28;20197;-70
2023/01/28 00:52:24;;;;;;;1.93;0.80;;;1.80;99.90;;;;;;4975134;28;20212;-70
2023/01/28 00:54:51;;;;;;;2.20;0.87;;;1.80;99.90;;;;;;4975563;28;20463;-70
2023/01/28 00:57:18;;;;;;;3.87;1.23;;;1.80;99.90;;;;;;4973473;28;20212;-70
2023/01/28 00:59:46;;;;;;;2.50;0.97;;;1.90;99.90;;;;;;4974658;28;20581;-70
2023/01/28 01:02:12;;;;;;;1.70;1.00;;;1.90;99.90;;;;;;4975297;28;20216;-70
2023/01/28 01:04:40;;;;;;;1.60;0.90;;;1.90;99.90;;;;;;4974720;28;20602;-70
2023/01/28 01:07:07;;;;;;;2.40;1.10;;;1.80;99.90;;;;;;4974607;28;20671;-70
2023/01/28 01:09:34;;;;;;;2.87;0.60;;;1.80;99.90;;;;;;4974784;28;20214;-70
2023/01/28 01:12:00;;;;;;;3.70;1.80;;;1.80;99.90;;;;;;4974930;28;20209;-70
2023/01/28 01:14:27;;;;;;;3.93;0.97;;;1.90;99.90;;;;;;4974436;28;20713;-70
2023/01/28 01:16:55;;;;;;;1.63;1.10;;;1.90;99.90;;;;;;4975129;28;20206;-70
2023/01/28 01:19:22;;;;;;;2.20;1.43;;;1.90;99.90;;;;;;4975087;28;20209;-70
2023/01/28 01:21:49;;;;;;;2.27;1.23;;;1.90;99.90;;;;;;4973807;28;20619;-70
2023/01/28 01:24:16;;;;;;;2.40;0.97;;;1.90;99.90;;;;;;4974580;28;20198;-70
2023/01/28 01:26:43;;;;;;;4.30;1.00;;;2.00;99.90;;;;;;4974951;28;20225;-70
2023/01/28 01:29:10;;;;;;;2.43;1.03;;;1.90;99.90;;;;;;4973218;28;20229;-70
2023/01/28 01:31:36;;;;;;;2.30;1.30;;;1.90;99.90;;;;;;4975015;28;20202;-70
2023/01/28 01:34:04;;;;;;;5.47;1.00;;;1.90;99.90;;;;;;4974136;28;20604;-71
2023/01/28 01:36:31;;;;;;;3.53;0.90;;;1.90;99.90;;;;;;4974816;28;20588;-70
2023/01/28 01:38:58;;;;;;;2.70;1.20;;;2.00;99.90;;;;;;4974275;28;20214;-70
2023/01/28 01:41:28;;;;;;;1.73;1.13;;;2.00;99.90;;;;;;4974934;28;20652;-70
2023/01/28 01:43:56;;;;;;;2.00;1.00;;;2.10;99.90;;;;;;4974125;28;20233;-71
2023/01/28 01:46:30;;;;;;;0.80;0.80;;;2.00;99.90;;;;;;4970046;28;20212;-70
2023/01/28 01:49:00;;;;;;;4.60;1.40;;;2.00;99.90;;;;;;4973470;28;20204;-70
2023/01/28 01:51:32;;;;;;;4.93;0.90;;;1.90;99.90;;;;;;4974347;28;20212;-70
2023/01/28 01:54:01;;;;;;;4.37;1.07;;;2.00;99.90;;;;;;4973117;28;20230;-70
2023/01/28 01:56:34;;;;;;;2.20;0.97;;;2.00;99.90;;;;;;4973837;28;20217;-70
2023/01/28 01:59:02;;;;;;;3.87;1.13;;;2.00;99.90;;;;;;4972271;28;20202;-70
2023/01/28 02:01:31;;;;;;;1.50;0.70;;;2.00;99.90;;;;;;4973388;28;20209;-70
2023/01/28 02:04:04;;;;;;;2.00;1.30;;;2.00;99.90;;;;;;4973941;28;20209;-70
2023/01/28 02:06:33;;;;;;;1.60;0.90;;;1.90;99.90;;;;;;4974418;28;20209;-70
2023/01/28 02:08:59;;;;;;;3.77;1.27;;;1.90;99.90;;;;;;4973583;28;20579;-70
2023/01/28 02:11:31;;;;;;;3.27;1.00;;;1.90;99.90;;;;;;4973019;28;20213;-70
2023/01/28 02:14:02;;;;;;;2.33;1.10;;;1.90;99.90;;;;;;4953599;29;20233;-70
2023/01/28 02:16:30;;;;;;;2.60;0.80;;;1.90;99.90;;;;;;4965630;28;20213;-70
2023/01/28 02:18:57;;;;;;;3.13;1.00;;;1.90;99.90;;;;;;4967542;28;20209;-70
2023/01/28 02:21:57;;;;;;;2.77;1.10;;;1.90;99.90;;;;;;4974259;28;20213;-70
2023/01/28 02:24:57;;;;;;;4.13;0.70;;;1.90;99.90;;;;;;4973247;28;20244;-70
2023/01/28 02:27:35;;;;;;;2.20;1.00;;;1.90;99.90;;;;;;4973407;28;20209;-70
2023/01/28 02:30:11;;;;;;;2.53;0.83;;;1.90;99.90;;;;;;4973850;28;20228;-70
2023/01/28 02:32:43;;;;;;;3.00;0.97;;;1.90;99.90;;;;;;4973420;28;20206;-70
2023/01/28 02:35:15;;;;;;;1.60;0.60;;;1.80;99.90;;;;;;4973599;28;20702;-70
2023/01/28 02:37:47;;;;;;;4.77;1.60;;;1.90;99.90;;;;;;4972354;28;20208;-68
2023/01/28 02:40:20;;;;;;;3.73;0.83;;;1.90;99.90;;;;;;4972779;28;20208;-68
2023/01/28 02:42:46;;;;;;;0.70;0.50;;;1.80;99.90;;;;;;4973097;28;20575;-68
2023/01/28 02:47:56;;;;;;;4.07;1.00;;;1.90;99.90;;;;;;4972631;28;20232;-68
2023/01/28 02:48:11;;;;;;;1.57;0.70;;;1.90;99.90;;;;;;4973493;28;20208;-68
2023/01/28 02:50:45;;;;;;;3.50;0.83;;;1.80;99.90;;;;;;4973645;28;20581;-68
2023/01/28 02:53:42;;;;;;;2.00;1.10;;;1.80;99.90;;;;;;4971091;28;20271;-68
2023/01/28 02:56:28;;;;;;;1.60;0.97;;;1.80;99.90;;;;;;4973433;28;20248;-68
2023/01/28 02:59:29;;;;;;;5.10;1.10;;;1.80;99.90;;;;;;4972291;28;20210;-68
2023/01/28 03:01:57;;;;;;;0.93;0.80;;;1.80;99.90;;;;;;4972963;28;20233;-68
2023/01/28 03:04:28;;;;;;;1.00;0.87;;;1.80;99.90;;;;;;4973040;28;20603;-68
2023/01/28 03:06:58;;;;;;;2.43;0.87;;;1.80;99.90;;;;;;4972329;28;20205;-68
2023/01/28 03:09:25;;;;;;;1.70;0.93;;;1.80;99.90;;;;;;4973497;28;20681;-68
2023/01/28 03:37:00;;;;;;;1.83;0.93;;;1.70;99.90;;;;;;4973107;28;20575;-68
2023/01/28 03:39:29;;;;;;;3.27;0.80;;;1.70;99.90;;;;;;4972467;28;20220;-68
2023/01/28 03:42:02;;;;;;;2.00;1.30;;;1.70;99.90;;;;;;4972945;28;20668;-68
2023/01/28 03:47:13;;;;;;;1.30;0.90;;;1.70;99.90;;;;;;4973251;28;20201;-68
2023/01/28 03:49:43;;;;;;;3.23;1.20;;;1.60;99.90;;;;;;4972988;28;20217;-68
2023/01/28 03:52:10;;;;;;;2.90;0.83;;;1.60;99.90;;;;;;4974221;28;20205;-68
2023/01/28 03:54:37;;;;;;;1.43;0.80;;;1.60;99.90;;;;;;4975680;28;20659;-68
2023/01/28 03:57:04;;;;;;;1.83;1.13;;;1.60;99.90;;;;;;4976900;28;20217;-68
2023/01/28 03:59:31;;;;;;;2.57;1.00;;;1.60;99.90;;;;;;4975878;28;20213;-68
2023/01/28 04:01:58;;;;;;;4.03;1.30;;;1.60;99.90;;;;;;4975937;28;20573;-68
2023/01/28 04:04:25;;;;;;;3.60;1.23;;;1.60;99.90;;;;;;4975402;28;20212;-68
2023/01/28 04:06:54;;;;;;;4.80;0.90;;;1.60;99.90;;;;;;4976585;28;20216;-68
2023/01/28 04:09:21;;;;;;;3.67;1.40;;;1.60;99.90;;;;;;4976192;28;20201;-68
2023/01/28 04:11:49;;;;;;;1.90;0.93;;;1.50;99.90;;;;;;4975222;28;20200;-68
2023/01/28 04:14:16;;;;;;;1.60;1.20;;;1.50;99.90;;;;;;4974998;28;20229;-68
2023/01/28 04:16:43;;;;;;;2.40;1.10;;;1.50;99.90;;;;;;4967839;28;20197;-68
2023/01/28 04:19:12;;;;;;;1.20;0.83;;;1.60;99.90;;;;;;4975913;28;20210;-68
2023/01/28 04:21:39;;;;;;;1.60;1.10;;;1.70;99.90;;;;;;4975129;28;20596;-68
2023/01/28 04:24:08;;;;;;;2.73;1.27;;;1.70;99.90;;;;;;4974795;28;20212;-68
2023/01/28 04:26:35;;;;;;;2.00;1.30;;;1.80;99.90;;;;;;4976324;28;20216;-67
2023/01/28 04:29:01;;;;;;;2.80;1.63;;;1.80;99.90;;;;;;4975231;28;20663;-68
2023/01/28 04:31:28;;;;;;;3.93;1.40;;;1.80;99.90;;;;;;4975410;28;20197;-68
2023/01/28 04:33:55;;;;;;;2.30;1.47;;;1.90;99.90;;;;;;4974436;28;20561;-68
2023/01/28 04:36:22;;;;;;;4.03;1.60;;;1.70;99.90;;;;;;4975955;28;20209;-68
2023/01/28 04:38:49;;;;;;;2.53;1.20;;;1.80;99.90;;;;;;4975533;28;20201;-68
2023/01/28 04:41:17;;;;;;;5.80;1.33;;;1.70;99.90;;;;;;4975877;28;20538;-68
2023/01/28 04:43:44;;;;;;;1.50;1.40;;;1.80;99.90;;;;;;4974670;28;20209;-68
2023/01/28 04:46:11;;;;;;;1.63;1.53;;;1.80;99.90;;;;;;4975795;28;20209;-68
2023/01/28 04:48:38;;;;;;;2.53;1.30;;;1.70;99.90;;;;;;4975289;28;20208;-68
2023/01/28 04:51:05;;;;;;;3.10;1.20;;;1.70;99.90;;;;;;4975879;28;20217;-68
2023/01/28 04:53:32;;;;;;;1.97;1.20;;;1.70;99.90;;;;;;4974401;28;20202;-68
2023/01/28 04:55:58;;;;;;;1.23;1.07;;;1.70;99.90;;;;;;4974907;28;20201;-68
2023/01/28 04:58:27;;;;;;;3.93;1.30;;;1.70;99.90;;;;;;4974722;28;20570;-68
2023/01/28 05:00:57;;;;;;;1.20;1.00;;;1.60;99.90;;;;;;4971033;28;20649;-68
2023/01/28 05:03:25;;;;;;;2.20;1.33;;;1.60;99.90;;;;;;4968136;28;20213;-68
2023/01/28 05:05:52;;;;;;;3.97;1.00;;;1.60;99.90;;;;;;4970973;28;20205;-68
2023/01/28 05:08:18;;;;;;;2.77;1.10;;;1.60;99.90;;;;;;4975154;28;20202;-68
2023/01/28 05:10:45;;;;;;;2.33;1.20;;;1.60;99.90;;;;;;4975100;28;20580;-68
2023/01/28 05:13:13;;;;;;;1.67;1.10;;;1.60;99.90;;;;;;4974026;28;20221;-68
2023/01/28 05:15:41;;;;;;;2.60;0.87;;;1.70;99.90;;;;;;4973606;28;20222;-68
2023/01/28 05:18:08;;;;;;;4.17;1.20;;;1.70;99.90;;;;;;4974859;28;20289;-69
2023/01/28 05:20:35;;;;;;;1.10;1.00;;;1.60;99.90;;;;;;4974871;28;20202;-68
2023/01/28 05:23:01;;;;;;;1.90;1.10;;;1.60;99.90;;;;;;4974142;28;20209;-68
2023/01/28 05:25:28;;;;;;;1.77;1.00;;;1.60;99.90;;;;;;4974798;28;20220;-68
2023/01/28 05:27:55;;;;;;;1.40;1.13;;;1.60;99.90;;;;;;4973427;28;20574;-68
2023/01/28 05:30:22;;;;;;;2.90;1.30;;;1.60;99.90;;;;;;4974383;28;20599;-68
2023/01/28 05:32:55;;;;;;;1.03;0.80;;;1.50;99.90;;;;;;4966722;28;20688;-67
2023/01/28 05:35:22;;;;;;;3.53;1.17;;;1.60;99.90;;;;;;4967116;28;20237;-68
2023/01/28 05:37:49;;;;;;;2.13;0.93;;;1.60;99.90;;;;;;4973915;28;20660;-68
2023/01/28 05:40:16;;;;;;;1.43;1.00;;;1.60;99.90;;;;;;4973886;28;20682;-67
2023/01/28 05:42:43;;;;;;;2.20;1.13;;;1.50;99.90;;;;;;4974431;28;20210;-68
2023/01/28 05:45:10;;;;;;;1.67;1.13;;;1.50;99.90;;;;;;4973820;28;20578;-68
2023/01/28 05:47:37;;;;;;;1.97;1.20;;;1.60;99.90;;;;;;4973616;28;20205;-68
2023/01/28 05:50:07;;;;;;;4.30;1.70;;;1.60;99.90;;;;;;4974421;28;20213;-67
2023/01/28 05:52:34;;;;;;;2.90;1.57;;;1.60;99.90;;;;;;4972503;28;20561;-68
2023/01/28 05:55:01;;;;;;;3.93;1.50;;;1.60;99.90;;;;;;4973452;28;20217;-68
2023/01/28 05:57:28;;;;;;;5.27;1.93;;;1.50;99.90;;;;;;4973970;28;20205;-68
2023/01/28 05:59:55;;;;;;;8.00;2.70;;;1.50;99.90;;;;;;4973238;28;20212;-67
2023/01/28 06:02:22;;;;;;;4.30;1.80;;;1.50;99.90;;;;;;4969979;28;20657;-67
2023/01/28 06:04:49;;;;;;;7.10;2.13;;;1.50;99.90;;;;;;4970887;28;20220;-68
2023/01/28 06:07:19;;;;;;;3.37;1.40;;;1.50;99.90;;;;;;4971433;28;20206;-67
2023/01/28 06:09:46;;;;;;;4.23;1.43;;;1.60;99.90;;;;;;4970048;28;20225;-68
2023/01/28 06:12:13;;;;;;;1.60;1.30;;;1.50;99.90;;;;;;4971413;28;20238;-68
2023/01/28 06:14:40;;;;;;;1.93;1.20;;;1.50;99.90;;;;;;4975940;28;20643;-68
2023/01/28 06:17:07;;;;;;;1.50;1.20;;;1.60;99.90;;;;;;4967350;28;20206;-68
2023/01/28 06:19:33;;;;;;;2.83;1.20;;;1.50;99.90;;;;;;4974642;28;20213;-68
2023/01/28 06:22:00;;;;;;;2.50;1.60;;;1.50;99.90;;;;;;4976175;28;20220;-68
2023/01/28 06:24:28;;;;;;;3.40;1.50;;;1.40;99.90;;;;;;4973419;28;20202;-68
2023/01/28 06:26:55;;;;;;;4.30;1.60;;;1.50;99.90;;;;;;4969010;28;20210;-67
2023/01/28 06:29:23;;;;;;;3.70;1.40;;;1.50;99.90;;;;;;4975178;28;20209;-68
2023/01/28 06:31:50;;;;;;;3.90;1.43;;;1.40;99.90;;;;;;4975992;28;20568;-68
2023/01/28 06:34:16;;;;;;;2.87;1.30;;;1.40;99.90;;;;;;4971026;28;20201;-68
2023/01/28 06:36:44;;;;;;;3.70;1.30;;;1.40;99.90;;;;;;4968951;28;20205;-68
2023/01/28 06:39:10;;;;;;;1.30;1.20;;;1.40;99.90;;;;;;4974952;28;20239;-68
2023/01/28 06:41:39;;;;;;;3.47;1.37;;;1.50;99.90;;;;;;4973304;28;20205;-68
2023/01/28 06:44:06;;;;;;;2.40;2.17;;;1.50;99.90;;;;;;4969376;28;20213;-68
2023/01/28 06:46:32;;;;;;;3.33;1.67;;;1.40;99.90;;;;;;4978914;28;20210;-68
2023/01/28 06:48:59;;;;;;;2.47;1.33;;;1.40;99.90;;;;;;4972737;28;20578;-68
2023/01/28 06:51:26;;;;;;;3.03;1.20;;;1.50;99.90;;;;;;4971758;28;20206;-68
2023/01/28 06:53:53;;;;;;;1.43;1.00;;;1.40;99.90;;;;;;4977166;28;20565;-68
2023/01/28 06:56:20;;;;;;;3.07;1.43;;;1.40;99.90;;;;;;4971087;28;20244;-68
2023/01/28 06:58:48;;;;;;;3.40;1.50;;;1.40;99.90;;;;;;4970975;28;20217;-68
2023/01/28 07:01:15;;;;;;;3.13;1.30;;;1.40;99.90;;;;;;4975459;28;20206;-68
2023/01/28 07:03:41;;;;;;;4.33;2.27;;;1.40;99.90;;;;;;4972975;28;20206;-68
2023/01/28 07:06:08;;;;;;;10.57;4.43;;;1.40;99.90;;;;;;4966197;28;20199;-68
2023/01/28 07:08:36;;;;;;;8.60;3.83;;;1.40;99.90;;;;;;4961969;28;20252;-68
2023/01/28 07:11:03;;;;;;;2.57;1.63;;;1.40;99.90;;;;;;4967748;28;20252;-68
2023/01/28 07:13:30;;;;;;;6.83;1.80;;;1.30;99.90;;;;;;4954077;29;20228;-70
2023/01/28 07:15:59;;;;;;;1.93;1.13;;;1.20;99.90;;;;;;4961917;28;20225;-68
2023/01/28 07:18:25;;;;;;;2.47;1.20;;;1.20;99.90;;;;;;4972704;28;20426;-67
2023/01/28 07:20:52;;;;;;;6.23;1.27;;;1.30;99.90;;;;;;4971828;28;20210;-68
2023/01/28 07:23:19;;;;;;;1.20;1.10;;;1.30;99.90;;;;;;4972691;28;20201;-68
2023/01/28 07:25:46;;;;;;;2.80;1.40;;;1.20;99.90;;;;;;4973353;28;20198;-68
2023/01/28 07:28:13;;;;;;;1.40;1.30;;;1.30;99.90;;;;;;4976646;28;20216;-68
2023/01/28 07:30:39;;;;;;;3.73;1.30;;;1.30;99.90;;;;;;4977132;28;20209;-68
2023/01/28 07:33:08;;;;;;;1.67;1.57;;;1.30;99.90;;;;;;4975923;28;20574;-68
2023/01/28 07:35:34;;;;;;;3.90;1.20;;;1.30;99.90;;;;;;4975784;28;20312;-68
2023/01/28 07:38:01;;;;;;;6.20;2.13;;;1.40;99.90;;;;;;4976106;28;20210;-68
2023/01/28 07:40:28;;;;;;;3.03;1.73;;;1.40;99.90;;;;;;4975851;28;20510;-68
2023/01/28 07:42:55;;;;;;;3.37;1.67;;;1.40;99.90;;;;;;4976357;28;20613;-68
2023/01/28 07:45:23;;;;;;;1.47;1.30;;;1.30;99.90;;;;;;4973494;28;20203;-68
2023/01/28 07:47:54;;;;;;;3.03;1.10;;;1.30;99.90;;;;;;4972739;28;20206;-68
2023/01/28 07:50:23;;;;;;;2.53;1.20;;;1.40;99.90;;;;;;4976521;28;20209;-68
2023/01/28 07:52:50;;;;;;;3.50;1.50;;;1.40;99.90;;;;;;4971515;28;20210;-68
2023/01/28 07:55:17;;;;;;;1.73;1.13;;;1.40;99.90;;;;;;4982125;28;20214;-68
2023/01/28 07:57:51;;;;;;;4.43;2.20;;;1.50;99.90;;;;;;4972367;28;20221;-68
2023/01/28 08:00:19;;;;;;;3.57;1.90;;;1.50;99.90;;;;;;4972587;28;20667;-68
2023/01/28 08:02:47;;;;;;;12.57;3.60;;;1.40;99.90;;;;;;4978695;28;20216;-68
2023/01/28 08:05:16;;;;;;;13.73;4.27;;;1.40;99.90;;;;;;4970733;28;20206;-68
2023/01/28 08:07:45;;;;;;;11.57;4.13;;;1.50;99.90;;;;;;4974886;28;20205;-68
2023/01/28 08:10:12;;;;;;;9.70;3.70;;;1.50;99.90;;;;;;4976049;28;20216;-68
2023/01/28 08:12:39;;;;;;;8.73;4.57;;;1.50;99.90;;;;;;4973091;28;20209;-68
2023/01/28 08:15:07;;;;;;;6.93;3.60;;;1.50;99.90;;;;;;4973530;28;20676;-68
2023/01/28 08:17:34;;;;;;;5.63;2.60;;;1.50;99.90;;;;;;4971517;28;20217;-68
2023/01/28 08:20:01;;;;;;;5.53;2.07;;;1.50;99.90;;;;;;4981623;28;20540;-68
2023/01/28 08:22:28;;;;;;;2.93;2.13;;;1.50;99.90;;;;;;4971894;28;20202;-68
2023/01/28 08:24:56;;;;;;;4.77;2.23;;;1.60;99.90;;;;;;4977714;28;20201;-68
2023/01/28 08:27:23;;;;;;;2.27;1.90;;;1.50;99.90;;;;;;4973341;28;20205;-68
2023/01/28 08:29:50;;;;;;;2.63;1.50;;;1.60;99.90;;;;;;4974790;28;20460;-68
2023/01/28 08:32:17;;;;;;;2.37;1.90;;;1.60;99.90;;;;;;4975541;28;20209;-68
2023/01/28 08:34:44;;;;;;;6.07;3.43;;;1.60;99.90;;;;;;4975783;28;20202;-68
2023/01/28 08:37:10;;;;;;;4.17;2.37;;;1.70;99.90;;;;;;4959553;28;20209;-68
2023/01/28 08:39:37;;;;;;;4.80;2.17;;;1.70;99.90;;;;;;4959897;28;20220;-68
2023/01/28 08:42:06;;;;;;;1.67;1.43;;;1.70;99.90;;;;;;4975265;28;20202;-68
2023/01/28 08:44:33;;;;;;;6.30;2.90;;;1.80;99.90;;;;;;4956657;29;20214;-68
2023/01/28 08:47:00;;;;;;;4.47;1.60;;;1.80;99.90;;;;;;4962295;28;20198;-68
2023/01/28 08:49:27;;;;;;;3.73;2.20;;;1.90;99.90;;;;;;4967104;28;20190;-68
2023/01/28 08:51:54;;;;;;;10.40;4.40;;;1.90;99.90;;;;;;4974922;28;20201;-68
2023/01/28 08:54:21;;;;;;;7.07;3.17;;;1.90;99.90;;;;;;4971297;28;20205;-68
2023/01/28 08:56:48;;;;;;;3.07;1.93;;;1.80;99.90;;;;;;4961990;28;20579;-68
2023/01/28 08:59:17;;;;;;;3.87;1.70;;;1.90;99.90;;;;;;4974692;28;20656;-68
2023/01/28 09:01:44;;;;;;;9.47;2.70;;;2.00;99.90;;;;;;4974915;28;20213;-68
2023/01/28 09:04:11;;;;;;;3.33;1.90;;;1.90;99.90;;;;;;4975721;28;20216;-68
2023/01/28 09:06:37;;;;;;;3.10;1.70;;;1.90;99.90;;;;;;4974974;28;20212;-68
2023/01/28 09:09:04;;;;;;;2.63;1.97;;;2.00;99.90;;;;;;4974095;28;20206;-68
2023/01/28 09:11:31;;;;;;;5.83;1.93;;;1.90;99.90;;;;;;4974142;28;20216;-68
2023/01/28 09:13:58;;;;;;;4.33;2.17;;;1.90;99.90;;;;;;4974246;28;20225;-68
2023/01/28 09:16:26;;;;;;;3.60;1.93;;;2.00;99.90;;;;;;4974903;28;20229;-68
2023/01/28 09:18:53;;;;;;;4.23;2.00;;;2.00;99.90;;;;;;4955740;29;20198;-68
2023/01/28 09:21:20;;;;;;;2.60;1.80;;;2.10;99.90;;;;;;4972473;28;20224;-68
2023/01/28 09:23:47;;;;;;;3.57;1.97;;;2.10;99.90;;;;;;4973915;28;20205;-68
2023/01/28 09:26:14;;;;;;;4.53;1.73;;;2.10;99.90;;;;;;4974139;28;20216;-68
2023/01/28 09:28:41;;;;;;;3.37;1.70;;;2.20;99.90;;;;;;4974205;28;20202;-68
2023/01/28 09:31:10;;;;;;;2.60;1.70;;;2.10;99.90;;;;;;4974550;28;20209;-68
2023/01/28 09:33:39;;;;;;;4.40;2.27;;;2.20;99.90;;;;;;4973965;28;20208;-68
2023/01/28 09:36:10;;;;;;;3.60;2.03;;;2.10;99.90;;;;;;4973922;28;20716;-68
2023/01/28 09:38:36;;;;;;;4.70;2.10;;;2.20;99.90;;;;;;4973837;28;20202;-67
2023/01/28 09:41:21;;;;;;;2.20;2.00;;;2.10;99.90;;;;;;4974340;28;20541;-68
2023/01/28 09:44:00;;;;;;;5.93;2.10;;;2.20;99.90;;;;;;4973787;28;20207;-68
2023/01/28 09:46:32;;;;;;;3.00;2.20;;;2.10;99.90;;;;;;4974286;28;20607;-67
2023/01/28 09:49:05;;;;;;;3.43;1.90;;;2.10;99.90;;;;;;4973838;28;20197;-68
2023/01/28 09:51:36;;;;;;;3.03;2.73;;;1.90;99.90;;;;;;4973886;28;20209;-68
2023/01/28 09:54:06;;;;;;;2.60;2.10;;;2.00;99.90;;;;;;4973975;28;20204;-68
2023/01/28 09:56:39;;;;;;;3.30;2.00;;;2.00;99.90;;;;;;4973306;28;20226;-67
2023/01/28 09:59:18;;;;;;;5.80;2.60;;;2.00;99.90;;;;;;4971544;28;20258;-67
2023/01/28 10:01:50;;;;;;;3.23;2.20;;;2.10;99.90;;;;;;4979539;28;20205;-67
2023/01/28 10:04:29;;;;;;;6.03;2.30;;;2.10;99.90;;;;;;4970040;28;20205;-68
2023/01/28 10:07:07;;;;;;;5.17;2.20;;;2.10;99.90;;;;;;4969770;28;20205;-68
2023/01/28 10:09:42;;;;;;;3.27;2.10;;;2.20;99.90;;;;;;4974030;28;20217;-68
2023/01/28 10:12:31;;;;;;;3.47;1.97;;;2.10;99.90;;;;;;4972687;28;20217;-68
2023/01/28 10:15:16;;;;;;;4.87;2.50;;;2.10;99.90;;;;;;4969106;28;20201;-68
2023/01/28 10:17:47;;;;;;;3.37;1.80;;;2.20;99.90;;;;;;4973801;28;20656;-68
2023/01/28 10:20:24;;;;;;;2.47;1.77;;;2.10;99.90;;;;;;4973959;28;20208;-68
2023/01/28 10:22:56;;;;;;;3.00;2.27;;;2.20;99.90;;;;;;4972961;28;20201;-67
2023/01/28 10:25:25;;;;;;;2.97;2.10;;;2.20;99.90;;;;;;4973707;28;20212;-68
2023/01/28 10:27:52;;;;;;;6.50;2.87;;;2.30;99.90;;;;;;4969271;28;20211;-68
2023/01/28 10:30:22;;;;;;;6.70;3.10;;;2.20;99.90;;;;;;4970494;28;20256;-68
2023/01/28 10:32:53;;;;;;;4.50;2.80;;;2.30;99.90;;;;;;4969202;28;20292;-68
2023/01/28 10:35:22;;;;;;;4.83;2.67;;;2.30;99.90;;;;;;4970498;28;20565;-68
2023/01/28 10:37:50;;;;;;;4.80;2.87;;;2.20;99.90;;;;;;4965877;28;20284;-68
2023/01/28 10:40:18;;;;;;;7.97;3.70;;;2.10;99.90;;;;;;4969407;28;20199;-68
2023/01/28 10:42:45;;;;;;;5.80;3.80;;;2.10;99.90;;;;;;4973490;28;20216;-68
2023/01/28 10:45:19;;;;;;;8.53;4.30;;;2.10;99.90;;;;;;4970298;28;20210;-69
2023/01/28 10:47:50;;;;;;;10.57;5.60;;;2.00;99.90;;;;;;4968605;28;20233;-69
2023/01/28 10:50:22;;;;;;;11.40;5.40;;;2.00;99.90;;;;;;4969637;28;20213;-70
2023/01/28 10:52:58;;;;;;;6.53;3.70;;;2.00;99.90;;;;;;4973019;28;20651;-69
2023/01/28 10:55:30;;;;;;;5.47;3.40;;;1.90;99.90;;;;;;4966194;28;20217;-69
2023/01/28 10:57:58;;;;;;;5.70;3.63;;;2.00;99.90;;;;;;4971376;28;20207;-69
2023/01/28 11:00:29;;;;;;;6.97;3.73;;;2.00;99.90;;;;;;4971507;28;20197;-69
2023/01/28 11:02:57;;;;;;;8.50;4.10;;;2.10;99.90;;;;;;4967759;28;20232;-70
2023/01/28 11:05:26;;;;;;;7.00;3.60;;;2.10;99.90;;;;;;4973437;28;20205;-70
2023/01/28 11:08:06;;;;;;;4.47;3.77;;;2.10;99.90;;;;;;4971600;28;20201;-70
2023/01/28 11:10:35;;;;;;;6.07;3.07;;;2.10;99.90;;;;;;4972157;28;20587;-70
2023/01/28 11:13:04;;;;;;;6.53;4.00;;;2.10;99.90;;;;;;4975261;28;20710;-68
2023/01/28 11:15:32;;;;;;;5.33;4.00;;;2.30;99.90;;;;;;4972843;28;20295;-69
2023/01/28 11:18:02;;;;;;;4.57;3.37;;;2.30;99.90;;;;;;4972721;28;20197;-69
2023/01/28 11:20:35;;;;;;;5.13;3.30;;;2.20;99.90;;;;;;4971603;28;20589;-69
2023/01/28 11:23:02;;;;;;;3.93;3.37;;;2.00;99.90;;;;;;4978329;28;20660;-69
2023/01/28 11:25:33;;;;;;;4.37;3.80;;;2.10;99.90;;;;;;4974063;28;20296;-69
2023/01/28 11:28:02;;;;;;;6.13;3.50;;;2.20;99.90;;;;;;4974913;28;20213;-69
2023/01/28 11:30:32;;;;;;;7.17;4.17;;;2.20;99.90;;;;;;4972548;28;20578;-67
2023/01/28 11:33:05;;;;;;;8.07;5.07;;;2.20;99.90;;;;;;4977635;28;20215;-67
2023/01/28 11:35:32;;;;;;;5.90;3.73;;;2.20;99.90;;;;;;4970870;28;20198;-66
2023/01/28 11:38:01;;;;;;;7.13;3.80;;;2.10;99.90;;;;;;4969036;28;20202;-67
2023/01/28 11:40:29;;;;;;;5.17;4.00;;;2.20;99.90;;;;;;4968465;28;20658;-66
2023/01/28 11:42:58;;;;;;;5.70;4.20;;;2.30;99.90;;;;;;4969606;28;20209;-67
2023/01/28 11:45:35;;;;;;;5.23;4.00;;;2.30;99.90;;;;;;4973378;28;20336;-67
2023/01/28 11:48:21;;;;;;;5.27;3.57;;;2.30;99.90;;;;;;4975997;28;20202;-66
2023/01/28 11:50:57;;;;;;;4.77;3.50;;;2.20;99.90;;;;;;4970562;28;20201;-66
2023/01/28 11:54:06;;;;;;;6.60;3.77;;;2.20;99.90;;;;;;4972967;28;20767;-66
2023/01/28 11:56:46;;;;;;;7.43;4.00;;;2.10;99.90;;;;;;4977146;28;20222;-67
2023/01/28 11:59:42;;;;;;;12.07;4.20;;;2.20;99.90;;;;;;4967158;28;20213;-66
2023/01/28 12:02:24;;;;;;;5.77;4.33;;;2.30;99.90;;;;;;4964443;28;20686;-66
2023/01/28 12:05:08;;;;;;;7.47;4.20;;;2.40;99.90;;;;;;4962610;28;20580;-67
2023/01/28 12:07:44;;;;;;;4.77;4.10;;;2.50;99.90;;;;;;4965878;28;20222;-67
2023/01/28 12:10:20;;;;;;;5.50;3.70;;;2.40;99.90;;;;;;4958262;28;20209;-68
2023/01/28 12:13:14;;;;;;;6.83;4.33;;;2.50;99.90;;;;;;4975913;28;20208;-67
2023/01/28 12:16:23;;;;;;;4.90;3.63;;;2.50;99.90;;;;;;4973745;28;20198;-67
2023/01/28 12:19:12;;;;;;;5.93;4.13;;;2.50;99.90;;;;;;4969440;28;20205;-68
2023/01/28 12:21:56;;;;;;;7.50;4.37;;;2.60;99.90;;;;;;4968110;28;20205;-68
2023/01/28 12:24:35;;;;;;;8.17;4.83;;;2.60;99.90;;;;;;4960191;28;20210;-68
2023/01/28 12:27:10;;;;;;;6.03;4.23;;;2.60;99.90;;;;;;4972672;28;20208;-67
2023/01/28 12:29:46;;;;;;;5.13;4.17;;;2.50;99.90;;;;;;4970462;28;20206;-68
2023/01/28 12:32:30;;;;;;;11.43;4.60;;;2.60;99.90;;;;;;4973293;28;20613;-68
2023/01/28 12:35:31;;;;;;;6.37;4.20;;;2.50;99.90;;;;;;4963485;28;20256;-68
2023/01/28 12:38:02;;;;;;;6.07;4.17;;;2.60;99.90;;;;;;4967579;28;20249;-68
2023/01/28 12:40:49;;;;;;;5.13;4.30;;;2.70;99.90;;;;;;4967737;28;20210;-68
2023/01/28 12:43:22;;;;;;;5.87;4.07;;;2.70;99.90;;;;;;4966933;28;20571;-68
2023/01/28 12:45:54;;;;;;;5.60;4.13;;;2.80;99.90;;;;;;4969599;28;20236;-68
2023/01/28 12:48:28;;;;;;;7.20;4.13;;;4.10;99.90;;;;;;4969058;28;20213;-68
2023/01/28 12:51:02;;;;;;;6.17;4.13;;;4.80;99.90;;;;;;4967996;28;20229;-68
2023/01/28 12:53:37;;;;;;;4.83;4.00;;;5.30;99.90;;;;;;4963442;28;20210;-68
2023/01/28 12:56:14;;;;;;;7.90;4.00;;;5.90;99.90;;;;;;4970638;28;20442;-68
2023/01/28 12:58:47;;;;;;;4.93;4.03;;;5.10;99.90;;;;;;4973055;28;20213;-68
2023/01/28 13:01:19;;;;;;;6.23;4.20;;;5.10;99.90;;;;;;4969325;28;20660;-68
2023/01/28 13:03:52;;;;;;;4.77;4.00;;;5.20;99.90;;;;;;4970444;28;20664;-68
2023/01/28 13:06:24;;;;;;;6.13;4.30;;;4.30;99.90;;;;;;4972888;28;20681;-68
2023/01/28 13:08:58;;;;;;;6.37;4.00;;;3.90;99.90;;;;;;4972057;28;20228;-68
2023/01/28 13:11:30;;;;;;;6.63;4.30;;;3.50;99.90;;;;;;4968514;28;20217;-68
2023/01/28 13:13:57;;;;;;;5.13;4.03;;;3.70;99.90;;;;;;4971789;28;20209;-69
2023/01/28 13:16:24;;;;;;;6.53;4.50;;;3.50;99.90;;;;;;4967283;28;20232;-69
2023/01/28 13:18:52;;;;;;;7.17;4.33;;;3.60;99.90;;;;;;4971201;28;20209;-69
2023/01/28 13:21:33;;;;;;;9.03;4.60;;;3.20;99.90;;;;;;4973419;28;20216;-69
2023/01/28 13:24:22;;;;;;;6.90;4.50;;;3.60;99.90;;;;;;4963184;28;20209;-69
2023/01/28 13:26:51;;;;;;;6.57;4.40;;;3.50;99.90;;;;;;4976392;28;20204;-69
2023/01/28 13:29:30;;;;;;;6.17;4.50;;;3.70;99.90;;;;;;4977234;28;20202;-70
2023/01/28 13:31:58;;;;;;;6.60;4.47;;;4.30;99.90;;;;;;4975182;28;20225;-69
2023/01/28 13:34:34;;;;;;;6.50;4.63;;;5.00;99.90;;;;;;4970888;28;20216;-69
2023/01/28 13:37:05;;;;;;;6.33;4.37;;;5.40;99.90;;;;;;4973455;28;20340;-70
2023/01/28 13:39:35;;;;;;;9.93;4.40;;;5.40;99.90;;;;;;4974849;28;20268;-69
2023/01/28 13:42:20;;;;;;;6.83;4.37;;;5.40;99.90;;;;;;4976860;28;20205;-70